sensor_id;sensor_type;location;lat;lon;timestamp;P1;durP1;ratioP1;P2;durP2;ratioP2
42742;SDS011;28397;44.552;-0.848;2024-02-21T00:01:42;10.50;;;7.20;;
42742;SDS011;28397;44.552;-0.848;2024-02-21T00:04:08;9.65;;;6.82;;
42742;SDS011;28397;44.552;-0.848;2024-02-21T00:06:33;8.82;;;6.32;;
42742;SDS011;28397;44.552;-0.848;2024-02-21T00:08:59;11.00;;;6.95;;
42742;SDS011;28397;44.552;-0.848;2024-02-21T00:11:24;9.35;;;6.45;;
42742;SDS011;28397;44.552;-0.848;2024-02-21T00:13:50;8.50;;;6.43;;
42742;SDS011;28397;44.552;-0.848;2024-02-21T00:16:16;9.95;;;5.93;;
42742;SDS011;28397;44.552;-0.848;2024-02-21T00:18:42;9.52;;;5.78;;
42742;SDS011;28397;44.552;-0.848;2024-02-21T00:21:08;9.40;;;5.68;;
42742;SDS011;28397;44.552;-0.848;2024-02-21T00:23:34;8.70;;;4.95;;
42742;SDS011;28397;44.552;-0.848;2024-02-21T00:25:59;11.77;;;5.28;;
42742;SDS011;28397;44.552;-0.848;2024-02-21T00:28:25;9.70;;;5.55;;
42742;SDS011;28397;44.552;-0.848;2024-02-21T00:30:50;9.13;;;5.13;;
42742;SDS011;28397;44.552;-0.848;2024-02-21T00:33:18;8.00;;;5.07;;
42742;SDS011;28397;44.552;-0.848;2024-02-21T00:35:44;8.27;;;5.05;;
42742;SDS011;28397;44.552;-0.848;2024-02-21T00:38:10;9.10;;;5.00;;
42742;SDS011;28397;44.552;-0.848;2024-02-21T00:40:35;7.95;;;4.57;;
42742;SDS011;28397;44.552;-0.848;2024-02-21T00:43:01;10.20;;;4.65;;
42742;SDS011;28397;44.552;-0.848;2024-02-21T00:45:27;7.78;;;4.20;;
42742;SDS011;28397;44.552;-0.848;2024-02-21T00:47:53;7.78;;;4.00;;
42742;SDS011;28397;44.552;-0.848;2024-02-21T00:50:19;7.50;;;4.20;;
42742;SDS011;28397;44.552;-0.848;2024-02-21T00:52:44;8.75;;;4.70;;
42742;SDS011;28397;44.552;-0.848;2024-02-21T00:55:10;6.85;;;3.92;;
42742;SDS011;28397;44.552;-0.848;2024-02-21T00:57:36;7.30;;;3.92;;
42742;SDS011;28397;44.552;-0.848;2024-02-21T01:00:02;8.00;;;3.85;;
42742;SDS011;28397;44.552;-0.848;2024-02-21T01:02:28;6.30;;;3.38;;
42742;SDS011;28397;44.552;-0.848;2024-02-21T01:04:56;10.50;;;3.65;;
42742;SDS011;28397;44.552;-0.848;2024-02-21T01:07:22;5.60;;;3.28;;
42742;SDS011;28397;44.552;-0.848;2024-02-21T01:09:48;5.50;;;3.40;;
42742;SDS011;28397;44.552;-0.848;2024-02-21T01:12:16;7.38;;;3.70;;
42742;SDS011;28397;44.552;-0.848;2024-02-21T01:14:42;6.35;;;3.30;;
42742;SDS011;28397;44.552;-0.848;2024-02-21T01:17:08;8.13;;;3.75;;
42742;SDS011;28397;44.552;-0.848;2024-02-21T01:19:33;8.05;;;3.58;;
42742;SDS011;28397;44.552;-0.848;2024-02-21T01:21:59;5.65;;;3.70;;
42742;SDS011;28397;44.552;-0.848;2024-02-21T01:24:25;7.95;;;4.10;;
42742;SDS011;28397;44.552;-0.848;2024-02-21T01:26:50;7.53;;;3.40;;
42742;SDS011;28397;44.552;-0.848;2024-02-21T01:29:16;7.82;;;3.67;;
42742;SDS011;28397;44.552;-0.848;2024-02-21T01:31:42;8.07;;;3.67;;
42742;SDS011;28397;44.552;-0.848;2024-02-21T01:34:07;7.15;;;4.15;;
42742;SDS011;28397;44.552;-0.848;2024-02-21T01:36:33;6.13;;;3.65;;
42742;SDS011;28397;44.552;-0.848;2024-02-21T01:38:59;7.53;;;3.88;;
42742;SDS011;28397;44.552;-0.848;2024-02-21T01:41:25;6.60;;;4.07;;
42742;SDS011;28397;44.552;-0.848;2024-02-21T01:43:50;5.07;;;4.10;;
42742;SDS011;28397;44.552;-0.848;2024-02-21T01:46:16;8.68;;;4.43;;
42742;SDS011;28397;44.552;-0.848;2024-02-21T01:48:42;8.45;;;4.30;;
42742;SDS011;28397;44.552;-0.848;2024-02-21T01:51:08;8.48;;;4.13;;
42742;SDS011;28397;44.552;-0.848;2024-02-21T01:53:37;5.15;;;3.55;;
42742;SDS011;28397;44.552;-0.848;2024-02-21T01:56:07;8.10;;;4.15;;
42742;SDS011;28397;44.552;-0.848;2024-02-21T01:58:34;6.38;;;3.42;;
42742;SDS011;28397;44.552;-0.848;2024-02-21T02:01:02;8.77;;;3.90;;
42742;SDS011;28397;44.552;-0.848;2024-02-21T02:03:28;7.25;;;3.90;;
42742;SDS011;28397;44.552;-0.848;2024-02-21T02:05:55;7.03;;;3.70;;
42742;SDS011;28397;44.552;-0.848;2024-02-21T02:08:21;6.80;;;3.85;;
42742;SDS011;28397;44.552;-0.848;2024-02-21T02:10:47;8.25;;;5.32;;
42742;SDS011;28397;44.552;-0.848;2024-02-21T02:13:13;11.77;;;6.00;;
42742;SDS011;28397;44.552;-0.848;2024-02-21T02:15:40;11.90;;;5.72;;
42742;SDS011;28397;44.552;-0.848;2024-02-21T02:18:10;7.88;;;4.47;;
42742;SDS011;28397;44.552;-0.848;2024-02-21T02:20:37;9.65;;;4.40;;
42742;SDS011;28397;44.552;-0.848;2024-02-21T02:25:31;9.13;;;3.92;;
42742;SDS011;28397;44.552;-0.848;2024-02-21T02:27:57;6.80;;;4.05;;
42742;SDS011;28397;44.552;-0.848;2024-02-21T02:30:22;7.85;;;3.88;;
42742;SDS011;28397;44.552;-0.848;2024-02-21T02:32:48;9.63;;;3.92;;
42742;SDS011;28397;44.552;-0.848;2024-02-21T02:35:13;9.23;;;3.60;;
42742;SDS011;28397;44.552;-0.848;2024-02-21T02:37:39;9.60;;;3.70;;
42742;SDS011;28397;44.552;-0.848;2024-02-21T02:40:06;8.52;;;3.33;;
42742;SDS011;28397;44.552;-0.848;2024-02-21T02:42:32;6.53;;;3.28;;
42742;SDS011;28397;44.552;-0.848;2024-02-21T02:44:57;9.20;;;3.83;;
42742;SDS011;28397;44.552;-0.848;2024-02-21T02:47:23;6.22;;;3.65;;
42742;SDS011;28397;44.552;-0.848;2024-02-21T02:49:49;7.82;;;3.70;;
42742;SDS011;28397;44.552;-0.848;2024-02-21T02:52:16;5.40;;;3.30;;
42742;SDS011;28397;44.552;-0.848;2024-02-21T02:54:43;5.65;;;3.33;;
42742;SDS011;28397;44.552;-0.848;2024-02-21T02:57:09;6.15;;;3.47;;
42742;SDS011;28397;44.552;-0.848;2024-02-21T02:59:34;6.53;;;2.95;;
42742;SDS011;28397;44.552;-0.848;2024-02-21T03:02:00;6.13;;;2.92;;
42742;SDS011;28397;44.552;-0.848;2024-02-21T03:04:26;9.38;;;3.25;;
42742;SDS011;28397;44.552;-0.848;2024-02-21T03:06:51;6.13;;;2.90;;
42742;SDS011;28397;44.552;-0.848;2024-02-21T03:09:17;7.68;;;3.00;;
42742;SDS011;28397;44.552;-0.848;2024-02-21T03:11:43;6.32;;;2.72;;
42742;SDS011;28397;44.552;-0.848;2024-02-21T03:14:09;5.90;;;3.10;;
42742;SDS011;28397;44.552;-0.848;2024-02-21T03:16:35;8.68;;;2.90;;
42742;SDS011;28397;44.552;-0.848;2024-02-21T03:19:01;7.25;;;3.10;;
42742;SDS011;28397;44.552;-0.848;2024-02-21T03:21:27;9.23;;;3.08;;
42742;SDS011;28397;44.552;-0.848;2024-02-21T03:23:52;6.85;;;2.70;;
42742;SDS011;28397;44.552;-0.848;2024-02-21T03:26:18;6.82;;;3.05;;
42742;SDS011;28397;44.552;-0.848;2024-02-21T03:28:44;5.75;;;2.60;;
42742;SDS011;28397;44.552;-0.848;2024-02-21T03:31:12;6.20;;;2.78;;
42742;SDS011;28397;44.552;-0.848;2024-02-21T03:33:42;5.15;;;2.28;;
42742;SDS011;28397;44.552;-0.848;2024-02-21T03:36:14;5.90;;;2.90;;
42742;SDS011;28397;44.552;-0.848;2024-02-21T03:38:40;6.65;;;2.80;;
42742;SDS011;28397;44.552;-0.848;2024-02-21T03:41:06;6.15;;;2.78;;
42742;SDS011;28397;44.552;-0.848;2024-02-21T03:43:32;5.72;;;2.75;;
42742;SDS011;28397;44.552;-0.848;2024-02-21T03:45:57;4.72;;;2.85;;
42742;SDS011;28397;44.552;-0.848;2024-02-21T03:48:23;6.10;;;2.83;;
42742;SDS011;28397;44.552;-0.848;2024-02-21T03:50:49;5.57;;;2.53;;
42742;SDS011;28397;44.552;-0.848;2024-02-21T03:53:14;6.25;;;2.90;;
42742;SDS011;28397;44.552;-0.848;2024-02-21T03:55:40;5.32;;;2.83;;
42742;SDS011;28397;44.552;-0.848;2024-02-21T03:58:05;6.28;;;2.50;;
42742;SDS011;28397;44.552;-0.848;2024-02-21T04:00:31;5.70;;;2.85;;
42742;SDS011;28397;44.552;-0.848;2024-02-21T04:02:57;6.13;;;2.80;;
42742;SDS011;28397;44.552;-0.848;2024-02-21T04:05:22;6.93;;;2.85;;
42742;SDS011;28397;44.552;-0.848;2024-02-21T04:07:48;6.88;;;2.72;;
42742;SDS011;28397;44.552;-0.848;2024-02-21T04:10:13;6.80;;;2.72;;
42742;SDS011;28397;44.552;-0.848;2024-02-21T04:12:39;5.05;;;2.47;;
42742;SDS011;28397;44.552;-0.848;2024-02-21T04:15:05;5.85;;;2.50;;
42742;SDS011;28397;44.552;-0.848;2024-02-21T04:17:31;5.72;;;2.70;;
42742;SDS011;28397;44.552;-0.848;2024-02-21T04:20:01;6.95;;;2.65;;
42742;SDS011;28397;44.552;-0.848;2024-02-21T04:25:01;4.53;;;2.60;;
42742;SDS011;28397;44.552;-0.848;2024-02-21T04:27:27;3.65;;;2.28;;
42742;SDS011;28397;44.552;-0.848;2024-02-21T04:29:53;4.60;;;2.28;;
42742;SDS011;28397;44.552;-0.848;2024-02-21T04:32:19;7.03;;;2.78;;
42742;SDS011;28397;44.552;-0.848;2024-02-21T04:34:44;4.72;;;2.38;;
42742;SDS011;28397;44.552;-0.848;2024-02-21T04:37:10;8.23;;;2.60;;
42742;SDS011;28397;44.552;-0.848;2024-02-21T04:39:36;6.30;;;2.85;;
42742;SDS011;28397;44.552;-0.848;2024-02-21T04:42:01;6.15;;;2.88;;
42742;SDS011;28397;44.552;-0.848;2024-02-21T04:44:27;6.00;;;3.10;;
42742;SDS011;28397;44.552;-0.848;2024-02-21T04:46:53;5.57;;;2.58;;
42742;SDS011;28397;44.552;-0.848;2024-02-21T04:49:18;4.68;;;2.67;;
42742;SDS011;28397;44.552;-0.848;2024-02-21T04:51:44;5.38;;;2.65;;
42742;SDS011;28397;44.552;-0.848;2024-02-21T04:54:10;5.95;;;2.70;;
42742;SDS011;28397;44.552;-0.848;2024-02-21T04:56:36;4.90;;;2.92;;
42742;SDS011;28397;44.552;-0.848;2024-02-21T04:59:01;8.35;;;2.63;;
42742;SDS011;28397;44.552;-0.848;2024-02-21T05:01:28;5.72;;;2.65;;
42742;SDS011;28397;44.552;-0.848;2024-02-21T05:03:53;8.70;;;2.70;;
42742;SDS011;28397;44.552;-0.848;2024-02-21T05:06:19;6.18;;;2.80;;
42742;SDS011;28397;44.552;-0.848;2024-02-21T05:08:44;6.18;;;2.60;;
42742;SDS011;28397;44.552;-0.848;2024-02-21T05:11:10;8.68;;;2.75;;
42742;SDS011;28397;44.552;-0.848;2024-02-21T05:13:36;6.55;;;2.65;;
42742;SDS011;28397;44.552;-0.848;2024-02-21T05:16:01;5.28;;;2.80;;
42742;SDS011;28397;44.552;-0.848;2024-02-21T05:18:28;8.10;;;2.60;;
42742;SDS011;28397;44.552;-0.848;2024-02-21T05:20:53;4.80;;;2.35;;
42742;SDS011;28397;44.552;-0.848;2024-02-21T05:23:19;7.38;;;3.38;;
42742;SDS011;28397;44.552;-0.848;2024-02-21T05:25:45;10.55;;;3.30;;
42742;SDS011;28397;44.552;-0.848;2024-02-21T05:28:10;6.30;;;2.72;;
42742;SDS011;28397;44.552;-0.848;2024-02-21T05:30:36;7.25;;;2.70;;
42742;SDS011;28397;44.552;-0.848;2024-02-21T05:33:05;6.35;;;2.30;;
42742;SDS011;28397;44.552;-0.848;2024-02-21T05:35:31;6.35;;;2.65;;
42742;SDS011;28397;44.552;-0.848;2024-02-21T05:37:57;7.35;;;2.60;;
42742;SDS011;28397;44.552;-0.848;2024-02-21T05:40:22;5.88;;;2.50;;
42742;SDS011;28397;44.552;-0.848;2024-02-21T05:42:48;3.97;;;2.55;;
42742;SDS011;28397;44.552;-0.848;2024-02-21T05:45:16;6.32;;;2.60;;
42742;SDS011;28397;44.552;-0.848;2024-02-21T05:47:41;4.68;;;2.58;;
42742;SDS011;28397;44.552;-0.848;2024-02-21T05:50:07;6.75;;;2.63;;
42742;SDS011;28397;44.552;-0.848;2024-02-21T05:52:33;7.70;;;2.95;;
42742;SDS011;28397;44.552;-0.848;2024-02-21T05:54:59;5.10;;;2.25;;
42742;SDS011;28397;44.552;-0.848;2024-02-21T05:57:25;7.15;;;2.97;;
42742;SDS011;28397;44.552;-0.848;2024-02-21T05:59:50;7.45;;;2.75;;
42742;SDS011;28397;44.552;-0.848;2024-02-21T06:02:16;6.82;;;2.88;;
42742;SDS011;28397;44.552;-0.848;2024-02-21T06:04:42;6.93;;;3.47;;
42742;SDS011;28397;44.552;-0.848;2024-02-21T06:07:07;8.25;;;3.42;;
42742;SDS011;28397;44.552;-0.848;2024-02-21T06:09:33;5.35;;;3.17;;
42742;SDS011;28397;44.552;-0.848;2024-02-21T06:11:59;8.25;;;3.55;;
42742;SDS011;28397;44.552;-0.848;2024-02-21T06:14:25;5.53;;;2.97;;
42742;SDS011;28397;44.552;-0.848;2024-02-21T06:16:50;6.60;;;3.00;;
42742;SDS011;28397;44.552;-0.848;2024-02-21T06:19:16;5.70;;;2.80;;
42742;SDS011;28397;44.552;-0.848;2024-02-21T06:21:41;6.45;;;2.83;;
42742;SDS011;28397;44.552;-0.848;2024-02-21T06:24:07;7.10;;;2.53;;
42742;SDS011;28397;44.552;-0.848;2024-02-21T06:26:33;5.75;;;2.80;;
42742;SDS011;28397;44.552;-0.848;2024-02-21T06:28:58;6.10;;;2.70;;
42742;SDS011;28397;44.552;-0.848;2024-02-21T06:31:27;7.13;;;2.80;;
42742;SDS011;28397;44.552;-0.848;2024-02-21T06:33:53;4.90;;;2.78;;
42742;SDS011;28397;44.552;-0.848;2024-02-21T06:36:19;6.15;;;2.97;;
42742;SDS011;28397;44.552;-0.848;2024-02-21T06:38:44;7.03;;;2.58;;
42742;SDS011;28397;44.552;-0.848;2024-02-21T06:41:16;5.63;;;2.80;;
42742;SDS011;28397;44.552;-0.848;2024-02-21T06:46:10;8.27;;;3.05;;
42742;SDS011;28397;44.552;-0.848;2024-02-21T06:48:36;7.53;;;2.70;;
42742;SDS011;28397;44.552;-0.848;2024-02-21T06:51:02;5.25;;;2.85;;
42742;SDS011;28397;44.552;-0.848;2024-02-21T06:53:29;6.05;;;2.75;;
42742;SDS011;28397;44.552;-0.848;2024-02-21T06:55:54;5.53;;;2.67;;
42742;SDS011;28397;44.552;-0.848;2024-02-21T06:58:20;6.10;;;2.75;;
42742;SDS011;28397;44.552;-0.848;2024-02-21T07:00:45;5.90;;;2.88;;
42742;SDS011;28397;44.552;-0.848;2024-02-21T07:03:11;5.25;;;2.88;;
42742;SDS011;28397;44.552;-0.848;2024-02-21T07:05:37;7.10;;;3.05;;
42742;SDS011;28397;44.552;-0.848;2024-02-21T07:08:02;9.15;;;3.40;;
42742;SDS011;28397;44.552;-0.848;2024-02-21T07:10:28;8.75;;;3.83;;
42742;SDS011;28397;44.552;-0.848;2024-02-21T07:12:54;9.93;;;3.85;;
42742;SDS011;28397;44.552;-0.848;2024-02-21T07:15:20;7.30;;;3.33;;
42742;SDS011;28397;44.552;-0.848;2024-02-21T07:17:46;8.48;;;3.40;;
42742;SDS011;28397;44.552;-0.848;2024-02-21T07:20:12;6.88;;;2.92;;
42742;SDS011;28397;44.552;-0.848;2024-02-21T07:22:37;8.50;;;3.08;;
42742;SDS011;28397;44.552;-0.848;2024-02-21T07:25:03;5.18;;;2.85;;
42742;SDS011;28397;44.552;-0.848;2024-02-21T07:27:29;7.22;;;3.25;;
42742;SDS011;28397;44.552;-0.848;2024-02-21T07:29:57;6.82;;;2.85;;
42742;SDS011;28397;44.552;-0.848;2024-02-21T07:32:22;6.15;;;3.28;;
42742;SDS011;28397;44.552;-0.848;2024-02-21T07:34:48;6.65;;;2.83;;
42742;SDS011;28397;44.552;-0.848;2024-02-21T07:37:14;5.82;;;3.00;;
42742;SDS011;28397;44.552;-0.848;2024-02-21T07:39:39;6.72;;;3.42;;
42742;SDS011;28397;44.552;-0.848;2024-02-21T07:42:06;8.07;;;3.60;;
42742;SDS011;28397;44.552;-0.848;2024-02-21T07:44:31;11.18;;;3.58;;
42742;SDS011;28397;44.552;-0.848;2024-02-21T07:46:57;5.60;;;3.50;;
42742;SDS011;28397;44.552;-0.848;2024-02-21T07:49:23;7.60;;;3.65;;
42742;SDS011;28397;44.552;-0.848;2024-02-21T07:51:49;4.00;;;3.08;;
42742;SDS011;28397;44.552;-0.848;2024-02-21T07:54:15;7.90;;;3.83;;
42742;SDS011;28397;44.552;-0.848;2024-02-21T07:56:41;9.68;;;3.90;;
42742;SDS011;28397;44.552;-0.848;2024-02-21T07:59:06;7.43;;;4.32;;
42742;SDS011;28397;44.552;-0.848;2024-02-21T08:01:32;6.28;;;3.63;;
42742;SDS011;28397;44.552;-0.848;2024-02-21T08:03:58;8.35;;;3.60;;
42742;SDS011;28397;44.552;-0.848;2024-02-21T08:06:24;7.13;;;3.03;;
42742;SDS011;28397;44.552;-0.848;2024-02-21T08:08:50;6.97;;;2.75;;
42742;SDS011;28397;44.552;-0.848;2024-02-21T08:11:15;7.88;;;3.15;;
42742;SDS011;28397;44.552;-0.848;2024-02-21T08:13:41;5.05;;;2.53;;
42742;SDS011;28397;44.552;-0.848;2024-02-21T08:16:07;7.03;;;3.00;;
42742;SDS011;28397;44.552;-0.848;2024-02-21T08:18:32;8.35;;;2.92;;
42742;SDS011;28397;44.552;-0.848;2024-02-21T08:21:01;10.50;;;2.78;;
42742;SDS011;28397;44.552;-0.848;2024-02-21T08:23:28;8.18;;;2.65;;
42742;SDS011;28397;44.552;-0.848;2024-02-21T08:25:54;7.78;;;2.63;;
42742;SDS011;28397;44.552;-0.848;2024-02-21T08:28:20;9.52;;;2.50;;
42742;SDS011;28397;44.552;-0.848;2024-02-21T08:30:46;7.68;;;2.55;;
42742;SDS011;28397;44.552;-0.848;2024-02-21T08:33:15;6.53;;;2.80;;
42742;SDS011;28397;44.552;-0.848;2024-02-21T08:35:41;6.80;;;2.58;;
42742;SDS011;28397;44.552;-0.848;2024-02-21T08:38:07;4.60;;;2.50;;
42742;SDS011;28397;44.552;-0.848;2024-02-21T08:40:33;5.05;;;2.60;;
42742;SDS011;28397;44.552;-0.848;2024-02-21T08:43:00;5.28;;;2.80;;
42742;SDS011;28397;44.552;-0.848;2024-02-21T08:45:26;6.75;;;3.28;;
42742;SDS011;28397;44.552;-0.848;2024-02-21T08:47:51;7.13;;;4.03;;
42742;SDS011;28397;44.552;-0.848;2024-02-21T08:50:17;6.88;;;3.40;;
42742;SDS011;28397;44.552;-0.848;2024-02-21T08:52:43;6.47;;;2.90;;
42742;SDS011;28397;44.552;-0.848;2024-02-21T08:55:08;6.82;;;3.30;;
42742;SDS011;28397;44.552;-0.848;2024-02-21T08:57:34;6.85;;;2.90;;
42742;SDS011;28397;44.552;-0.848;2024-02-21T09:00:03;9.00;;;2.80;;
42742;SDS011;28397;44.552;-0.848;2024-02-21T09:02:39;6.00;;;2.85;;
42742;SDS011;28397;44.552;-0.848;2024-02-21T09:05:06;8.00;;;3.03;;
42742;SDS011;28397;44.552;-0.848;2024-02-21T09:07:32;4.72;;;2.78;;
42742;SDS011;28397;44.552;-0.848;2024-02-21T09:09:57;6.53;;;3.35;;
42742;SDS011;28397;44.552;-0.848;2024-02-21T09:12:23;6.80;;;3.53;;
42742;SDS011;28397;44.552;-0.848;2024-02-21T09:14:49;6.68;;;3.25;;
42742;SDS011;28397;44.552;-0.848;2024-02-21T09:17:15;10.05;;;3.38;;
42742;SDS011;28397;44.552;-0.848;2024-02-21T09:19:42;4.72;;;2.90;;
42742;SDS011;28397;44.552;-0.848;2024-02-21T09:22:08;7.18;;;3.10;;
42742;SDS011;28397;44.552;-0.848;2024-02-21T09:24:34;10.18;;;3.83;;
42742;SDS011;28397;44.552;-0.848;2024-02-21T09:27:00;6.28;;;3.00;;
42742;SDS011;28397;44.552;-0.848;2024-02-21T09:29:25;6.25;;;3.58;;
42742;SDS011;28397;44.552;-0.848;2024-02-21T09:31:51;6.20;;;3.20;;
42742;SDS011;28397;44.552;-0.848;2024-02-21T09:34:17;7.68;;;3.50;;
42742;SDS011;28397;44.552;-0.848;2024-02-21T09:36:43;9.68;;;3.72;;
42742;SDS011;28397;44.552;-0.848;2024-02-21T09:39:09;7.05;;;3.60;;
42742;SDS011;28397;44.552;-0.848;2024-02-21T09:41:39;9.25;;;3.70;;
42742;SDS011;28397;44.552;-0.848;2024-02-21T09:46:44;8.32;;;3.90;;
42742;SDS011;28397;44.552;-0.848;2024-02-21T09:49:21;6.25;;;3.58;;
42742;SDS011;28397;44.552;-0.848;2024-02-21T09:52:06;6.85;;;3.30;;
42742;SDS011;28397;44.552;-0.848;2024-02-21T09:54:35;8.32;;;3.63;;
42742;SDS011;28397;44.552;-0.848;2024-02-21T09:57:01;7.82;;;3.83;;
42742;SDS011;28397;44.552;-0.848;2024-02-21T09:59:31;9.10;;;3.83;;
42742;SDS011;28397;44.552;-0.848;2024-02-21T10:01:57;7.20;;;3.75;;
42742;SDS011;28397;44.552;-0.848;2024-02-21T10:04:25;9.25;;;3.90;;
42742;SDS011;28397;44.552;-0.848;2024-02-21T10:06:51;9.90;;;4.05;;
42742;SDS011;28397;44.552;-0.848;2024-02-21T10:09:22;9.38;;;4.00;;
42742;SDS011;28397;44.552;-0.848;2024-02-21T10:11:54;10.02;;;4.45;;
42742;SDS011;28397;44.552;-0.848;2024-02-21T10:14:20;8.70;;;4.40;;
42742;SDS011;28397;44.552;-0.848;2024-02-21T10:16:55;8.68;;;4.53;;
42742;SDS011;28397;44.552;-0.848;2024-02-21T10:19:25;9.10;;;4.50;;
42742;SDS011;28397;44.552;-0.848;2024-02-21T10:22:00;9.57;;;4.60;;
42742;SDS011;28397;44.552;-0.848;2024-02-21T10:24:32;7.03;;;4.57;;
42742;SDS011;28397;44.552;-0.848;2024-02-21T10:27:05;7.20;;;4.60;;
42742;SDS011;28397;44.552;-0.848;2024-02-21T10:29:35;8.32;;;4.78;;
42742;SDS011;28397;44.552;-0.848;2024-02-21T10:32:08;7.47;;;4.93;;
42742;SDS011;28397;44.552;-0.848;2024-02-21T10:34:36;8.10;;;5.30;;
42742;SDS011;28397;44.552;-0.848;2024-02-21T10:37:06;8.68;;;5.03;;
42742;SDS011;28397;44.552;-0.848;2024-02-21T10:39:32;8.98;;;5.30;;
42742;SDS011;28397;44.552;-0.848;2024-02-21T10:42:00;9.40;;;5.80;;
42742;SDS011;28397;44.552;-0.848;2024-02-21T10:44:31;9.02;;;5.50;;
42742;SDS011;28397;44.552;-0.848;2024-02-21T10:46:58;8.43;;;5.55;;
42742;SDS011;28397;44.552;-0.848;2024-02-21T10:49:25;7.97;;;5.53;;
42742;SDS011;28397;44.552;-0.848;2024-02-21T10:52:17;11.20;;;6.40;;
42742;SDS011;28397;44.552;-0.848;2024-02-21T10:55:04;9.32;;;5.97;;
42742;SDS011;28397;44.552;-0.848;2024-02-21T10:57:36;10.13;;;6.50;;
42742;SDS011;28397;44.552;-0.848;2024-02-21T11:00:03;13.15;;;7.50;;
42742;SDS011;28397;44.552;-0.848;2024-02-21T11:02:33;11.73;;;6.78;;
42742;SDS011;28397;44.552;-0.848;2024-02-21T11:04:59;10.43;;;6.57;;
42742;SDS011;28397;44.552;-0.848;2024-02-21T11:07:28;9.60;;;6.47;;
42742;SDS011;28397;44.552;-0.848;2024-02-21T11:09:57;12.90;;;7.40;;
42742;SDS011;28397;44.552;-0.848;2024-02-21T11:12:24;13.52;;;6.75;;
42742;SDS011;28397;44.552;-0.848;2024-02-21T11:14:51;13.15;;;7.07;;
42742;SDS011;28397;44.552;-0.848;2024-02-21T11:17:17;11.95;;;7.55;;
42742;SDS011;28397;44.552;-0.848;2024-02-21T11:19:44;12.30;;;7.07;;
42742;SDS011;28397;44.552;-0.848;2024-02-21T11:22:19;12.68;;;6.78;;
42742;SDS011;28397;44.552;-0.848;2024-02-21T11:24:49;15.52;;;7.53;;
42742;SDS011;28397;44.552;-0.848;2024-02-21T11:27:15;12.85;;;7.25;;
42742;SDS011;28397;44.552;-0.848;2024-02-21T11:29:49;11.63;;;7.28;;
42742;SDS011;28397;44.552;-0.848;2024-02-21T11:32:20;12.88;;;6.85;;
42742;SDS011;28397;44.552;-0.848;2024-02-21T11:35:04;13.48;;;7.30;;
42742;SDS011;28397;44.552;-0.848;2024-02-21T11:40:02;14.77;;;7.85;;
42742;SDS011;28397;44.552;-0.848;2024-02-21T11:42:28;15.82;;;7.57;;
42742;SDS011;28397;44.552;-0.848;2024-02-21T11:44:55;13.55;;;7.55;;
42742;SDS011;28397;44.552;-0.848;2024-02-21T11:47:24;12.05;;;6.90;;
42742;SDS011;28397;44.552;-0.848;2024-02-21T11:49:50;17.38;;;7.55;;
42742;SDS011;28397;44.552;-0.848;2024-02-21T11:52:21;15.77;;;8.13;;
42742;SDS011;28397;44.552;-0.848;2024-02-21T11:54:49;17.27;;;8.00;;
42742;SDS011;28397;44.552;-0.848;2024-02-21T11:57:16;16.95;;;7.35;;
42742;SDS011;28397;44.552;-0.848;2024-02-21T11:59:44;12.23;;;7.28;;
42742;SDS011;28397;44.552;-0.848;2024-02-21T12:02:10;17.25;;;7.95;;
42742;SDS011;28397;44.552;-0.848;2024-02-21T12:04:36;15.73;;;7.18;;
42742;SDS011;28397;44.552;-0.848;2024-02-21T12:07:02;17.05;;;6.93;;
42742;SDS011;28397;44.552;-0.848;2024-02-21T12:09:31;19.38;;;6.78;;
42742;SDS011;28397;44.552;-0.848;2024-02-21T12:11:57;16.10;;;6.30;;
42742;SDS011;28397;44.552;-0.848;2024-02-21T12:14:33;17.55;;;6.50;;
42742;SDS011;28397;44.552;-0.848;2024-02-21T12:17:00;16.30;;;6.50;;
42742;SDS011;28397;44.552;-0.848;2024-02-21T12:19:29;16.60;;;6.55;;
42742;SDS011;28397;44.552;-0.848;2024-02-21T12:21:56;18.05;;;6.65;;
42742;SDS011;28397;44.552;-0.848;2024-02-21T12:24:24;18.20;;;6.75;;
42742;SDS011;28397;44.552;-0.848;2024-02-21T12:26:51;14.40;;;6.22;;
42742;SDS011;28397;44.552;-0.848;2024-02-21T12:29:18;17.67;;;6.85;;
42742;SDS011;28397;44.552;-0.848;2024-02-21T12:31:49;14.30;;;6.78;;
42742;SDS011;28397;44.552;-0.848;2024-02-21T12:34:15;15.80;;;6.53;;
42742;SDS011;28397;44.552;-0.848;2024-02-21T12:36:42;15.05;;;6.70;;
42742;SDS011;28397;44.552;-0.848;2024-02-21T12:39:09;17.65;;;6.53;;
42742;SDS011;28397;44.552;-0.848;2024-02-21T12:41:35;14.82;;;6.60;;
42742;SDS011;28397;44.552;-0.848;2024-02-21T12:44:04;14.65;;;6.43;;
42742;SDS011;28397;44.552;-0.848;2024-02-21T12:46:33;12.98;;;6.10;;
42742;SDS011;28397;44.552;-0.848;2024-02-21T12:49:00;14.35;;;6.05;;
42742;SDS011;28397;44.552;-0.848;2024-02-21T12:51:26;16.55;;;6.10;;
42742;SDS011;28397;44.552;-0.848;2024-02-21T12:53:51;12.90;;;6.38;;
42742;SDS011;28397;44.552;-0.848;2024-02-21T12:56:17;16.80;;;6.38;;
42742;SDS011;28397;44.552;-0.848;2024-02-21T12:58:43;16.63;;;6.40;;
42742;SDS011;28397;44.552;-0.848;2024-02-21T13:01:09;15.57;;;6.13;;
42742;SDS011;28397;44.552;-0.848;2024-02-21T13:03:35;15.73;;;6.28;;
42742;SDS011;28397;44.552;-0.848;2024-02-21T13:06:01;15.90;;;6.38;;
42742;SDS011;28397;44.552;-0.848;2024-02-21T13:08:27;14.02;;;5.75;;
42742;SDS011;28397;44.552;-0.848;2024-02-21T13:10:52;16.33;;;6.20;;
42742;SDS011;28397;44.552;-0.848;2024-02-21T13:13:18;13.50;;;5.70;;
42742;SDS011;28397;44.552;-0.848;2024-02-21T13:15:44;11.90;;;5.90;;
42742;SDS011;28397;44.552;-0.848;2024-02-21T13:18:09;14.20;;;6.25;;
42742;SDS011;28397;44.552;-0.848;2024-02-21T13:20:36;15.07;;;6.00;;
42742;SDS011;28397;44.552;-0.848;2024-02-21T13:23:02;15.02;;;6.18;;
42742;SDS011;28397;44.552;-0.848;2024-02-21T13:25:28;17.48;;;6.93;;
42742;SDS011;28397;44.552;-0.848;2024-02-21T13:27:54;14.55;;;6.80;;
42742;SDS011;28397;44.552;-0.848;2024-02-21T13:30:20;15.25;;;6.15;;
42742;SDS011;28397;44.552;-0.848;2024-02-21T13:32:46;15.15;;;6.43;;
42742;SDS011;28397;44.552;-0.848;2024-02-21T13:35:12;16.00;;;6.13;;
42742;SDS011;28397;44.552;-0.848;2024-02-21T13:37:38;13.50;;;6.25;;
42742;SDS011;28397;44.552;-0.848;2024-02-21T13:40:04;12.85;;;5.70;;
42742;SDS011;28397;44.552;-0.848;2024-02-21T13:42:31;12.02;;;6.10;;
42742;SDS011;28397;44.552;-0.848;2024-02-21T13:44:56;14.52;;;6.05;;
42742;SDS011;28397;44.552;-0.848;2024-02-21T13:47:22;12.30;;;6.05;;
42742;SDS011;28397;44.552;-0.848;2024-02-21T13:49:48;15.55;;;5.63;;
42742;SDS011;28397;44.552;-0.848;2024-02-21T13:52:13;12.30;;;5.63;;
42742;SDS011;28397;44.552;-0.848;2024-02-21T13:54:40;15.23;;;5.60;;
42742;SDS011;28397;44.552;-0.848;2024-02-21T13:57:07;11.25;;;5.13;;
42742;SDS011;28397;44.552;-0.848;2024-02-21T13:59:33;12.18;;;5.35;;
42742;SDS011;28397;44.552;-0.848;2024-02-21T14:01:59;12.60;;;5.13;;
42742;SDS011;28397;44.552;-0.848;2024-02-21T14:04:25;11.23;;;4.97;;
42742;SDS011;28397;44.552;-0.848;2024-02-21T14:06:50;11.90;;;4.97;;
42742;SDS011;28397;44.552;-0.848;2024-02-21T14:09:18;9.77;;;4.47;;
42742;SDS011;28397;44.552;-0.848;2024-02-21T14:11:44;10.05;;;4.38;;
42742;SDS011;28397;44.552;-0.848;2024-02-21T14:14:10;11.30;;;4.40;;
42742;SDS011;28397;44.552;-0.848;2024-02-21T14:16:36;11.05;;;4.20;;
42742;SDS011;28397;44.552;-0.848;2024-02-21T14:19:02;10.07;;;4.28;;
42742;SDS011;28397;44.552;-0.848;2024-02-21T14:21:27;8.52;;;4.00;;
42742;SDS011;28397;44.552;-0.848;2024-02-21T14:23:53;8.55;;;4.30;;
42742;SDS011;28397;44.552;-0.848;2024-02-21T14:26:19;10.45;;;4.50;;
42742;SDS011;28397;44.552;-0.848;2024-02-21T14:28:46;10.32;;;4.20;;
42742;SDS011;28397;44.552;-0.848;2024-02-21T14:31:12;8.20;;;3.53;;
42742;SDS011;28397;44.552;-0.848;2024-02-21T14:33:38;10.25;;;4.20;;
42742;SDS011;28397;44.552;-0.848;2024-02-21T14:36:04;8.18;;;3.70;;
42742;SDS011;28397;44.552;-0.848;2024-02-21T14:38:30;6.68;;;3.33;;
42742;SDS011;28397;44.552;-0.848;2024-02-21T14:40:56;8.38;;;4.13;;